BATMAN1 EGQS-EGQS

Flight info

Callsign BATMAN1
Flight time N/A
Altitude 13000
Route VADNO DCT LSM
Aircraft EUFI/M-SDGHITUY/LB1

Departure

Time 2026-05-07 20:45
Airport RAF Lossiemouth (EGQS)

Arrival

Time N/A
Airport RAF Lossiemouth (EGQS)
Time Latitude Longitude Altitude Speed Heading
2026-05-07 20:32 57.71012 -3.34154 40 ft 0 kts 161°
2026-05-07 20:33 57.70995 -3.34142 40 ft 6 kts 158°
2026-05-07 20:33 57.70976 -3.34071 40 ft 3 kts 113°
2026-05-07 20:33 57.70945 -3.34040 40 ft 11 kts 162°
2026-05-07 20:33 57.70866 -3.34078 41 ft 16 kts 223°
2026-05-07 20:34 57.70776 -3.34249 41 ft 22 kts 228°
2026-05-07 20:34 57.70632 -3.34356 40 ft 26 kts 184°
2026-05-07 20:34 57.70440 -3.34356 36 ft 30 kts 151°
2026-05-07 20:34 57.70429 -3.34215 36 ft 3 kts 44°
2026-05-07 20:35 57.70430 -3.34215 36 ft 0 kts 44°
2026-05-07 20:44 57.70482 -3.34110 37 ft 76 kts 46°
2026-05-07 20:45 57.71191 -3.32770 52 ft 199 kts 47°
2026-05-07 20:45 57.72145 -3.30915 779 ft 232 kts 53°
2026-05-07 20:45 57.73290 -3.28076 1357 ft 323 kts 56°
2026-05-07 20:45 57.74984 -3.23781 1644 ft 536 kts 53°
2026-05-07 20:46 57.77366 -3.16855 1871 ft 720 kts 62°
2026-05-07 20:46 57.79909 -3.08126 2076 ft 800 kts 62°
2026-05-07 20:46 57.82716 -2.98726 2291 ft 846 kts 61°
2026-05-07 20:46 57.85685 -2.88964 2505 ft 872 kts 61°
2026-05-07 20:47 57.88732 -2.78987 2728 ft 889 kts 61°
2026-05-07 20:47 57.91844 -2.68842 2947 ft 900 kts 60°
2026-05-07 20:47 57.96642 -2.64330 5079 ft 865 kts 339°
2026-05-07 20:47 58.02331 -2.68509 7577 ft 892 kts 337°
2026-05-07 20:48 58.08236 -2.72931 10133 ft 930 kts 337°
2026-05-07 20:48 58.14198 -2.78191 13100 ft 964 kts 328°
2026-05-07 20:48 58.20879 -2.78491 12887 ft 1046 kts 21°
2026-05-07 20:48 58.27156 -2.70982 11882 ft 1083 kts 41°
2026-05-07 20:49 58.32218 -2.60585 9893 ft 1083 kts 51°
2026-05-07 20:49 58.36871 -2.49373 7377 ft 1069 kts 53°
2026-05-07 20:49 58.40571 -2.37585 4352 ft 1002 kts 70°
2026-05-07 20:49 58.41967 -2.30266 6538 ft 806 kts 72°
2026-05-07 20:50 58.42064 -2.29724 7233 ft 799 kts 72°
2026-05-07 20:50 58.42369 -2.27584 26892 ft 338 kts 247°
2026-05-07 20:51 58.41003 -2.35741 30653 ft 712 kts 250°
2026-05-07 20:51 58.39731 -2.45432 31856 ft 784 kts 255°
2026-05-07 20:51 58.38549 -2.56043 33106 ft 848 kts 255°
2026-05-07 20:51 58.37268 -2.67356 34435 ft 918 kts 255°
2026-05-07 20:52 58.35595 -2.79464 35039 ft 973 kts 250°
2026-05-07 20:52 58.33321 -2.92151 30805 ft 1061 kts 249°
2026-05-07 20:52 58.30934 -3.05559 28581 ft 1051 kts 249°
2026-05-07 20:52 58.28649 -3.18517 26572 ft 1021 kts 250°
2026-05-07 20:53 58.26422 -3.31150 24735 ft 993 kts 250°
2026-05-07 20:53 58.21484 -3.38095 23191 ft 949 kts 196°
2026-05-07 20:53 58.14890 -3.41668 23363 ft 1010 kts 197°
2026-05-07 20:53 58.08090 -3.45402 23511 ft 1043 kts 197°
2026-05-07 20:54 58.01052 -3.49263 23654 ft 1067 kts 197°
2026-05-07 20:54 57.93825 -3.53196 23796 ft 1087 kts 197°
2026-05-07 20:54 57.86424 -3.56344 23671 ft 1105 kts 175°
2026-05-07 20:54 57.80430 -3.48042 24903 ft 1136 kts 116°
2026-05-07 20:55 57.79557 -3.33264 25451 ft 1178 kts 87°
2026-05-07 20:55 57.80265 -3.17688 25534 ft 1209 kts 87°
2026-05-07 20:55 57.81009 -3.01810 25609 ft 1232 kts 86°
2026-05-07 20:55 57.81793 -2.85711 25663 ft 1248 kts 86°
2026-05-07 20:56 57.82648 -2.69421 25723 ft 1259 kts 81°
2026-05-07 20:56 57.88686 -2.59757 26833 ft 1258 kts 18°
2026-05-07 20:56 57.97050 -2.55565 21821 ft 1254 kts 358°
2026-05-07 20:56 58.05048 -2.59857 27387 ft 1208 kts 340°
2026-05-07 20:57 58.12939 -2.65466 27510 ft 1203 kts 306°
2026-05-07 20:57 58.14664 -2.80431 26480 ft 1194 kts 275°
2026-05-07 20:57 58.15809 -2.96262 25141 ft 1226 kts 276°
2026-05-07 20:57 58.16963 -3.12365 23814 ft 1236 kts 276°
2026-05-07 20:58 58.17539 -3.28314 21325 ft 1179 kts 239°
2026-05-07 20:58 58.10884 -3.27596 20943 ft 1097 kts 137°
2026-05-07 20:58 58.05332 -3.17327 24222 ft 1120 kts 137°
2026-05-07 20:58 58.00135 -3.07646 24609 ft 937 kts 137°
2026-05-07 20:59 57.96750 -3.01125 17896 ft 514 kts 137°
2026-05-07 20:59 57.94753 -2.97934 12930 ft 253 kts 178°
2026-05-07 20:59 57.93342 -2.98500 9200 ft 189 kts 205°
2026-05-07 20:59 57.92412 -2.99501 7937 ft 129 kts 211°
2026-05-07 21:00 57.91737 -3.00444 5668 ft 140 kts 223°
2026-05-07 21:00 57.90989 -3.01909 4284 ft 161 kts 226°
2026-05-07 21:00 57.90069 -3.03116 3017 ft 170 kts 208°
2026-05-07 21:00 57.89031 -3.04108 2130 ft 161 kts 206°
2026-05-07 21:01 57.87765 -3.05242 2125 ft 249 kts 204°
2026-05-07 21:01 57.86583 -3.06228 2742 ft 120 kts 204°
2026-05-07 21:01 57.85870 -3.07158 1443 ft 147 kts 224°
2026-05-07 21:01 57.84949 -3.09064 1152 ft 178 kts 225°
2026-05-07 21:02 57.84286 -3.10510 1397 ft 166 kts 225°
2026-05-07 21:02 57.83443 -3.12119 1333 ft 159 kts 219°
2026-05-07 21:02 57.82587 -3.13538 1344 ft 170 kts 219°
2026-05-07 21:02 57.81739 -3.14993 1669 ft 157 kts 220°
2026-05-07 21:03 57.80969 -3.16399 1851 ft 158 kts 222°
2026-05-07 21:03 57.80166 -3.17882 1784 ft 168 kts 222°
2026-05-07 21:03 57.79350 -3.19405 2008 ft 160 kts 223°
2026-05-07 21:03 57.78595 -3.20887 2195 ft 158 kts 224°
2026-05-07 21:04 57.77807 -3.22404 2159 ft 166 kts 219°
2026-05-07 21:04 57.76899 -3.23798 2080 ft 173 kts 217°
2026-05-07 21:04 57.75908 -3.25242 1737 ft 188 kts 219°
2026-05-07 21:04 57.75226 -3.26326 1532 ft 192 kts 219°
2026-05-07 21:05 57.73958 -3.28422 943 ft 168 kts 219°
2026-05-07 21:05 57.73357 -3.29362 479 ft 170 kts 217°
2026-05-07 21:05 57.72385 -3.30860 333 ft 182 kts 219°
2026-05-07 21:05 57.71543 -3.32302 37 ft 152 kts 218°
2026-05-07 21:06 57.70783 -3.33370 52 ft 143 kts 218°
2026-05-07 21:06 57.69940 -3.35009 1107 ft 254 kts 223°